sensor_id;sensor_type;location;lat;lon;timestamp;temperature;humidity
45969;DHT22;31676;40.444;-3.668;2022-10-16T00:00:30;24.90;74.00
45969;DHT22;31676;40.444;-3.668;2022-10-16T00:02:56;24.90;74.00
45969;DHT22;31676;40.444;-3.668;2022-10-16T00:05:21;24.90;74.00
45969;DHT22;31676;40.444;-3.668;2022-10-16T00:07:47;24.90;74.00
45969;DHT22;31676;40.444;-3.668;2022-10-16T00:10:13;24.90;74.00
45969;DHT22;31676;40.444;-3.668;2022-10-16T00:12:38;24.90;74.00
45969;DHT22;31676;40.444;-3.668;2022-10-16T00:15:04;24.90;74.00
45969;DHT22;31676;40.444;-3.668;2022-10-16T00:17:31;24.90;74.00
45969;DHT22;31676;40.444;-3.668;2022-10-16T00:19:57;24.90;74.00
45969;DHT22;31676;40.444;-3.668;2022-10-16T00:22:23;24.90;74.00
45969;DHT22;31676;40.444;-3.668;2022-10-16T00:24:48;24.90;74.00
45969;DHT22;31676;40.444;-3.668;2022-10-16T00:27:14;24.90;74.00
45969;DHT22;31676;40.444;-3.668;2022-10-16T00:29:40;24.90;74.00
45969;DHT22;31676;40.444;-3.668;2022-10-16T00:32:05;24.90;74.00
45969;DHT22;31676;40.444;-3.668;2022-10-16T00:34:31;24.90;74.00
45969;DHT22;31676;40.444;-3.668;2022-10-16T00:36:56;24.90;74.00
45969;DHT22;31676;40.444;-3.668;2022-10-16T00:39:22;24.90;74.00
45969;DHT22;31676;40.444;-3.668;2022-10-16T00:41:48;24.90;74.00
45969;DHT22;31676;40.444;-3.668;2022-10-16T00:46:58;24.90;74.00
45969;DHT22;31676;40.444;-3.668;2022-10-16T00:49:24;24.90;74.00
45969;DHT22;31676;40.444;-3.668;2022-10-16T00:51:50;24.90;74.00
45969;DHT22;31676;40.444;-3.668;2022-10-16T00:54:20;24.90;74.00
45969;DHT22;31676;40.444;-3.668;2022-10-16T00:56:46;24.90;74.00
45969;DHT22;31676;40.444;-3.668;2022-10-16T01:02:16;24.90;74.00
45969;DHT22;31676;40.444;-3.668;2022-10-16T01:04:49;24.90;74.00
45969;DHT22;31676;40.444;-3.668;2022-10-16T01:10:06;24.90;74.00
45969;DHT22;31676;40.444;-3.668;2022-10-16T01:25:19;24.80;74.00
45969;DHT22;31676;40.444;-3.668;2022-10-16T01:27:46;24.90;74.00
45969;DHT22;31676;40.444;-3.668;2022-10-16T01:30:20;24.80;74.00
45969;DHT22;31676;40.444;-3.668;2022-10-16T01:35:18;24.80;74.00
45969;DHT22;31676;40.444;-3.668;2022-10-16T01:37:48;24.90;74.00
45969;DHT22;31676;40.444;-3.668;2022-10-16T01:40:15;24.90;74.00
45969;DHT22;31676;40.444;-3.668;2022-10-16T01:42:42;24.80;74.00
45969;DHT22;31676;40.444;-3.668;2022-10-16T01:45:11;24.80;74.00
45969;DHT22;31676;40.444;-3.668;2022-10-16T01:47:38;24.90;74.00
45969;DHT22;31676;40.444;-3.668;2022-10-16T01:50:04;24.80;74.00
45969;DHT22;31676;40.444;-3.668;2022-10-16T01:52:31;24.80;74.00
45969;DHT22;31676;40.444;-3.668;2022-10-16T01:54:59;24.80;74.00
45969;DHT22;31676;40.444;-3.668;2022-10-16T01:57:25;24.80;74.00
45969;DHT22;31676;40.444;-3.668;2022-10-16T01:59:53;24.80;74.00
45969;DHT22;31676;40.444;-3.668;2022-10-16T02:02:19;24.80;74.00
45969;DHT22;31676;40.444;-3.668;2022-10-16T02:04:47;24.80;74.00
45969;DHT22;31676;40.444;-3.668;2022-10-16T02:07:14;24.80;74.00
45969;DHT22;31676;40.444;-3.668;2022-10-16T02:09:40;24.80;74.00
45969;DHT22;31676;40.444;-3.668;2022-10-16T02:12:40;24.80;74.00
45969;DHT22;31676;40.444;-3.668;2022-10-16T02:14:57;24.80;74.00
45969;DHT22;31676;40.444;-3.668;2022-10-16T02:17:23;24.80;74.00
45969;DHT22;31676;40.444;-3.668;2022-10-16T02:19:49;24.80;74.00
45969;DHT22;31676;40.444;-3.668;2022-10-16T02:22:18;24.80;74.10
45969;DHT22;31676;40.444;-3.668;2022-10-16T02:27:47;24.80;74.00
45969;DHT22;31676;40.444;-3.668;2022-10-16T02:30:25;24.80;74.00
45969;DHT22;31676;40.444;-3.668;2022-10-16T02:32:51;24.80;74.10
45969;DHT22;31676;40.444;-3.668;2022-10-16T02:35:18;24.80;74.10
45969;DHT22;31676;40.444;-3.668;2022-10-16T02:37:46;24.80;74.70
45969;DHT22;31676;40.444;-3.668;2022-10-16T02:40:12;24.80;74.10
45969;DHT22;31676;40.444;-3.668;2022-10-16T02:42:39;24.80;74.10
45969;DHT22;31676;40.444;-3.668;2022-10-16T02:45:05;24.80;74.10
45969;DHT22;31676;40.444;-3.668;2022-10-16T02:47:31;24.80;74.10
45969;DHT22;31676;40.444;-3.668;2022-10-16T02:49:57;24.80;74.10
45969;DHT22;31676;40.444;-3.668;2022-10-16T02:52:22;24.80;74.10
45969;DHT22;31676;40.444;-3.668;2022-10-16T02:54:48;24.80;74.10
45969;DHT22;31676;40.444;-3.668;2022-10-16T02:57:14;24.80;74.10
45969;DHT22;31676;40.444;-3.668;2022-10-16T02:59:40;24.80;74.10
45969;DHT22;31676;40.444;-3.668;2022-10-16T03:02:05;24.80;74.10
45969;DHT22;31676;40.444;-3.668;2022-10-16T03:04:31;24.80;74.10
45969;DHT22;31676;40.444;-3.668;2022-10-16T03:06:56;24.80;74.10
45969;DHT22;31676;40.444;-3.668;2022-10-16T03:09:22;24.80;74.10
45969;DHT22;31676;40.444;-3.668;2022-10-16T03:11:48;24.80;74.10
45969;DHT22;31676;40.444;-3.668;2022-10-16T03:14:14;24.80;74.10
45969;DHT22;31676;40.444;-3.668;2022-10-16T03:16:39;24.80;74.10
45969;DHT22;31676;40.444;-3.668;2022-10-16T03:19:05;24.80;74.10
45969;DHT22;31676;40.444;-3.668;2022-10-16T03:21:30;24.80;74.10
45969;DHT22;31676;40.444;-3.668;2022-10-16T03:23:56;24.80;74.10
45969;DHT22;31676;40.444;-3.668;2022-10-16T03:26:22;24.80;74.10
45969;DHT22;31676;40.444;-3.668;2022-10-16T03:28:47;24.80;74.10
45969;DHT22;31676;40.444;-3.668;2022-10-16T03:31:13;24.80;74.10
45969;DHT22;31676;40.444;-3.668;2022-10-16T03:33:39;24.80;74.10
45969;DHT22;31676;40.444;-3.668;2022-10-16T03:36:04;24.80;74.10
45969;DHT22;31676;40.444;-3.668;2022-10-16T03:38:30;24.80;74.10
45969;DHT22;31676;40.444;-3.668;2022-10-16T03:40:56;24.80;74.10
45969;DHT22;31676;40.444;-3.668;2022-10-16T03:43:21;24.80;74.10
45969;DHT22;31676;40.444;-3.668;2022-10-16T03:45:47;24.80;74.10
45969;DHT22;31676;40.444;-3.668;2022-10-16T03:48:13;24.80;74.10
45969;DHT22;31676;40.444;-3.668;2022-10-16T03:50:38;24.80;74.10
45969;DHT22;31676;40.444;-3.668;2022-10-16T03:53:04;24.80;74.10
45969;DHT22;31676;40.444;-3.668;2022-10-16T03:55:30;24.80;74.10
45969;DHT22;31676;40.444;-3.668;2022-10-16T03:57:55;24.70;74.00
45969;DHT22;31676;40.444;-3.668;2022-10-16T04:00:21;24.80;74.10
45969;DHT22;31676;40.444;-3.668;2022-10-16T04:02:47;24.70;74.00
45969;DHT22;31676;40.444;-3.668;2022-10-16T04:05:12;24.70;74.00
45969;DHT22;31676;40.444;-3.668;2022-10-16T04:07:38;24.80;74.10
45969;DHT22;31676;40.444;-3.668;2022-10-16T04:10:04;24.80;74.10
45969;DHT22;31676;40.444;-3.668;2022-10-16T04:12:30;24.80;74.10
45969;DHT22;31676;40.444;-3.668;2022-10-16T04:14:55;24.70;74.00
45969;DHT22;31676;40.444;-3.668;2022-10-16T04:17:21;24.70;74.00
45969;DHT22;31676;40.444;-3.668;2022-10-16T04:19:47;24.70;74.00
45969;DHT22;31676;40.444;-3.668;2022-10-16T04:22:12;24.80;74.10
45969;DHT22;31676;40.444;-3.668;2022-10-16T04:24:38;24.70;74.00
45969;DHT22;31676;40.444;-3.668;2022-10-16T04:27:04;24.80;74.10
45969;DHT22;31676;40.444;-3.668;2022-10-16T04:29:29;24.70;74.00
45969;DHT22;31676;40.444;-3.668;2022-10-16T04:31:55;24.70;74.10
45969;DHT22;31676;40.444;-3.668;2022-10-16T04:34:21;24.70;74.10
45969;DHT22;31676;40.444;-3.668;2022-10-16T04:36:47;24.70;74.70
45969;DHT22;31676;40.444;-3.668;2022-10-16T04:39:13;24.70;74.10
45969;DHT22;31676;40.444;-3.668;2022-10-16T04:41:39;24.70;74.10
45969;DHT22;31676;40.444;-3.668;2022-10-16T04:44:04;24.70;74.00
45969;DHT22;31676;40.444;-3.668;2022-10-16T04:46:30;24.70;74.10
45969;DHT22;31676;40.444;-3.668;2022-10-16T04:48:56;24.70;74.10
45969;DHT22;31676;40.444;-3.668;2022-10-16T04:51:21;24.70;74.10
45969;DHT22;31676;40.444;-3.668;2022-10-16T04:53:47;24.70;74.10
45969;DHT22;31676;40.444;-3.668;2022-10-16T04:56:13;24.70;74.10
45969;DHT22;31676;40.444;-3.668;2022-10-16T04:58:40;24.70;74.10
45969;DHT22;31676;40.444;-3.668;2022-10-16T05:01:05;24.70;74.10
45969;DHT22;31676;40.444;-3.668;2022-10-16T05:03:31;24.70;74.10
45969;DHT22;31676;40.444;-3.668;2022-10-16T05:05:57;24.70;74.10
45969;DHT22;31676;40.444;-3.668;2022-10-16T05:08:22;24.70;74.10
45969;DHT22;31676;40.444;-3.668;2022-10-16T05:10:48;24.70;74.10
45969;DHT22;31676;40.444;-3.668;2022-10-16T05:13:14;24.70;74.10
45969;DHT22;31676;40.444;-3.668;2022-10-16T05:15:40;24.60;74.00
45969;DHT22;31676;40.444;-3.668;2022-10-16T05:18:05;24.70;74.20
45969;DHT22;31676;40.444;-3.668;2022-10-16T05:20:31;24.70;74.10
45969;DHT22;31676;40.444;-3.668;2022-10-16T05:22:57;24.60;74.10
45969;DHT22;31676;40.444;-3.668;2022-10-16T05:25:23;24.70;74.20
45969;DHT22;31676;40.444;-3.668;2022-10-16T05:27:49;24.70;74.20
45969;DHT22;31676;40.444;-3.668;2022-10-16T05:30:15;24.70;74.10
45969;DHT22;31676;40.444;-3.668;2022-10-16T05:32:41;24.70;74.20
45969;DHT22;31676;40.444;-3.668;2022-10-16T05:35:07;24.60;74.10
45969;DHT22;31676;40.444;-3.668;2022-10-16T05:37:32;24.60;74.10
45969;DHT22;31676;40.444;-3.668;2022-10-16T05:39:58;24.60;74.10
45969;DHT22;31676;40.444;-3.668;2022-10-16T05:42:24;24.60;74.10
45969;DHT22;31676;40.444;-3.668;2022-10-16T05:44:49;24.60;74.10
45969;DHT22;31676;40.444;-3.668;2022-10-16T05:47:15;24.60;74.10
45969;DHT22;31676;40.444;-3.668;2022-10-16T05:49:41;24.60;74.10
45969;DHT22;31676;40.444;-3.668;2022-10-16T05:52:06;24.60;74.10
45969;DHT22;31676;40.444;-3.668;2022-10-16T05:54:32;24.60;74.10
45969;DHT22;31676;40.444;-3.668;2022-10-16T05:56:58;24.60;74.10
45969;DHT22;31676;40.444;-3.668;2022-10-16T05:59:23;24.60;74.10
45969;DHT22;31676;40.444;-3.668;2022-10-16T06:01:49;24.60;74.10
45969;DHT22;31676;40.444;-3.668;2022-10-16T06:04:14;24.60;74.10
45969;DHT22;31676;40.444;-3.668;2022-10-16T06:06:40;24.60;74.10
45969;DHT22;31676;40.444;-3.668;2022-10-16T06:09:06;24.60;74.10
45969;DHT22;31676;40.444;-3.668;2022-10-16T06:11:32;24.60;74.10
45969;DHT22;31676;40.444;-3.668;2022-10-16T06:13:58;24.60;74.10
45969;DHT22;31676;40.444;-3.668;2022-10-16T06:16:27;24.60;74.10
45969;DHT22;31676;40.444;-3.668;2022-10-16T06:18:53;24.60;74.10
45969;DHT22;31676;40.444;-3.668;2022-10-16T06:21:20;24.60;74.20
45969;DHT22;31676;40.444;-3.668;2022-10-16T06:23:46;24.60;74.10
45969;DHT22;31676;40.444;-3.668;2022-10-16T06:26:12;24.60;74.10
45969;DHT22;31676;40.444;-3.668;2022-10-16T06:28:39;24.60;74.10
45969;DHT22;31676;40.444;-3.668;2022-10-16T06:31:05;24.60;74.10
45969;DHT22;31676;40.444;-3.668;2022-10-16T06:33:31;24.50;74.10
45969;DHT22;31676;40.444;-3.668;2022-10-16T06:36:04;24.60;74.20
45969;DHT22;31676;40.444;-3.668;2022-10-16T06:38:30;24.50;74.10
45969;DHT22;31676;40.444;-3.668;2022-10-16T06:40:56;24.50;74.10
45969;DHT22;31676;40.444;-3.668;2022-10-16T06:43:21;24.50;74.10
45969;DHT22;31676;40.444;-3.668;2022-10-16T06:45:53;24.60;74.20
45969;DHT22;31676;40.444;-3.668;2022-10-16T06:48:19;24.50;74.10
45969;DHT22;31676;40.444;-3.668;2022-10-16T06:50:54;24.60;74.20
45969;DHT22;31676;40.444;-3.668;2022-10-16T06:53:20;24.50;74.10
45969;DHT22;31676;40.444;-3.668;2022-10-16T06:55:46;24.60;74.10
45969;DHT22;31676;40.444;-3.668;2022-10-16T06:58:11;24.50;74.10
45969;DHT22;31676;40.444;-3.668;2022-10-16T07:00:37;24.50;74.00
45969;DHT22;31676;40.444;-3.668;2022-10-16T07:03:03;24.60;74.10
45969;DHT22;31676;40.444;-3.668;2022-10-16T07:05:28;24.60;74.10
45969;DHT22;31676;40.444;-3.668;2022-10-16T07:07:54;24.50;74.10
45969;DHT22;31676;40.444;-3.668;2022-10-16T07:10:21;24.50;74.10
45969;DHT22;31676;40.444;-3.668;2022-10-16T07:12:49;24.60;74.10
45969;DHT22;31676;40.444;-3.668;2022-10-16T07:15:15;24.50;74.10
45969;DHT22;31676;40.444;-3.668;2022-10-16T07:17:40;24.50;74.10
45969;DHT22;31676;40.444;-3.668;2022-10-16T07:20:06;24.60;74.10
45969;DHT22;31676;40.444;-3.668;2022-10-16T07:22:32;24.50;74.10
45969;DHT22;31676;40.444;-3.668;2022-10-16T07:24:58;24.50;74.10
45969;DHT22;31676;40.444;-3.668;2022-10-16T07:27:24;24.50;74.10
45969;DHT22;31676;40.444;-3.668;2022-10-16T07:29:49;24.50;74.10
45969;DHT22;31676;40.444;-3.668;2022-10-16T07:32:15;24.50;74.10
45969;DHT22;31676;40.444;-3.668;2022-10-16T07:34:41;24.50;74.10
45969;DHT22;31676;40.444;-3.668;2022-10-16T07:37:07;24.50;74.10
45969;DHT22;31676;40.444;-3.668;2022-10-16T07:39:33;24.50;74.00
45969;DHT22;31676;40.444;-3.668;2022-10-16T07:41:59;24.50;74.10
45969;DHT22;31676;40.444;-3.668;2022-10-16T07:44:24;24.50;74.10
45969;DHT22;31676;40.444;-3.668;2022-10-16T07:46:50;24.50;74.10
45969;DHT22;31676;40.444;-3.668;2022-10-16T07:49:15;24.50;74.10
45969;DHT22;31676;40.444;-3.668;2022-10-16T07:51:41;24.50;74.00
45969;DHT22;31676;40.444;-3.668;2022-10-16T07:54:08;24.50;74.10
45969;DHT22;31676;40.444;-3.668;2022-10-16T07:56:33;24.50;74.10
45969;DHT22;31676;40.444;-3.668;2022-10-16T07:58:59;24.50;74.10
45969;DHT22;31676;40.444;-3.668;2022-10-16T08:01:25;24.50;74.10
45969;DHT22;31676;40.444;-3.668;2022-10-16T08:03:51;24.50;74.10
45969;DHT22;31676;40.444;-3.668;2022-10-16T08:06:17;24.50;74.10
45969;DHT22;31676;40.444;-3.668;2022-10-16T08:08:43;24.50;74.10
45969;DHT22;31676;40.444;-3.668;2022-10-16T08:11:09;24.50;74.10
45969;DHT22;31676;40.444;-3.668;2022-10-16T08:13:35;24.50;74.10
45969;DHT22;31676;40.444;-3.668;2022-10-16T08:16:01;24.50;74.10
45969;DHT22;31676;40.444;-3.668;2022-10-16T08:18:27;24.50;74.10
45969;DHT22;31676;40.444;-3.668;2022-10-16T08:20:56;24.50;74.10
45969;DHT22;31676;40.444;-3.668;2022-10-16T08:23:22;24.50;74.10
45969;DHT22;31676;40.444;-3.668;2022-10-16T08:25:48;24.50;74.10
45969;DHT22;31676;40.444;-3.668;2022-10-16T08:28:13;24.50;74.70
45969;DHT22;31676;40.444;-3.668;2022-10-16T08:30:39;24.50;74.10
45969;DHT22;31676;40.444;-3.668;2022-10-16T08:33:05;24.50;74.10
45969;DHT22;31676;40.444;-3.668;2022-10-16T08:35:31;24.50;74.10
45969;DHT22;31676;40.444;-3.668;2022-10-16T08:37:57;24.50;74.00
45969;DHT22;31676;40.444;-3.668;2022-10-16T08:40:26;24.50;74.10
45969;DHT22;31676;40.444;-3.668;2022-10-16T08:50:28;24.50;74.00
45969;DHT22;31676;40.444;-3.668;2022-10-16T08:52:55;24.50;74.10
45969;DHT22;31676;40.444;-3.668;2022-10-16T08:57:49;24.50;74.10
45969;DHT22;31676;40.444;-3.668;2022-10-16T09:00:14;24.50;74.10
45969;DHT22;31676;40.444;-3.668;2022-10-16T09:02:44;24.50;74.00
45969;DHT22;31676;40.444;-3.668;2022-10-16T09:05:17;24.50;74.00
45969;DHT22;31676;40.444;-3.668;2022-10-16T09:08:48;24.50;74.10
45969;DHT22;31676;40.444;-3.668;2022-10-16T09:10:55;24.40;74.00
45969;DHT22;31676;40.444;-3.668;2022-10-16T09:13:26;24.50;74.00
45969;DHT22;31676;40.444;-3.668;2022-10-16T09:18:44;24.40;74.00
45969;DHT22;31676;40.444;-3.668;2022-10-16T09:23:49;24.50;74.00
45969;DHT22;31676;40.444;-3.668;2022-10-16T09:26:15;24.50;74.00
45969;DHT22;31676;40.444;-3.668;2022-10-16T09:28:42;24.50;74.00
45969;DHT22;31676;40.444;-3.668;2022-10-16T09:31:11;24.50;74.00
45969;DHT22;31676;40.444;-3.668;2022-10-16T09:33:38;24.50;74.00
45969;DHT22;31676;40.444;-3.668;2022-10-16T09:36:06;24.50;74.00
45969;DHT22;31676;40.444;-3.668;2022-10-16T09:38:35;24.50;74.00
45969;DHT22;31676;40.444;-3.668;2022-10-16T09:41:13;24.50;74.10
45969;DHT22;31676;40.444;-3.668;2022-10-16T09:46:21;24.50;74.00
45969;DHT22;31676;40.444;-3.668;2022-10-16T09:48:48;24.50;74.00
45969;DHT22;31676;40.444;-3.668;2022-10-16T09:51:36;24.50;74.00
45969;DHT22;31676;40.444;-3.668;2022-10-16T09:54:02;24.50;74.00
45969;DHT22;31676;40.444;-3.668;2022-10-16T09:56:29;24.50;74.00
45969;DHT22;31676;40.444;-3.668;2022-10-16T09:58:56;24.50;74.00
45969;DHT22;31676;40.444;-3.668;2022-10-16T10:01:24;24.40;74.00
45969;DHT22;31676;40.444;-3.668;2022-10-16T10:03:50;24.50;74.00
45969;DHT22;31676;40.444;-3.668;2022-10-16T10:06:22;24.50;74.00
45969;DHT22;31676;40.444;-3.668;2022-10-16T10:08:58;24.50;74.00
45969;DHT22;31676;40.444;-3.668;2022-10-16T10:11:41;24.50;74.00
45969;DHT22;31676;40.444;-3.668;2022-10-16T10:14:49;24.50;74.00
45969;DHT22;31676;40.444;-3.668;2022-10-16T10:19:37;24.50;74.00
45969;DHT22;31676;40.444;-3.668;2022-10-16T10:27:24;24.50;74.00
45969;DHT22;31676;40.444;-3.668;2022-10-16T10:30:04;24.50;73.90
45969;DHT22;31676;40.444;-3.668;2022-10-16T10:40:22;24.50;73.90
45969;DHT22;31676;40.444;-3.668;2022-10-16T10:45:16;24.50;73.90
45969;DHT22;31676;40.444;-3.668;2022-10-16T10:55:49;24.50;74.00
45969;DHT22;31676;40.444;-3.668;2022-10-16T11:01:04;24.50;73.80
45969;DHT22;31676;40.444;-3.668;2022-10-16T11:03:55;24.50;73.90
45969;DHT22;31676;40.444;-3.668;2022-10-16T11:06:19;24.50;73.90
45969;DHT22;31676;40.444;-3.668;2022-10-16T11:08:53;24.50;73.80
45969;DHT22;31676;40.444;-3.668;2022-10-16T11:11:40;24.60;73.90
45969;DHT22;31676;40.444;-3.668;2022-10-16T11:14:13;24.50;73.80
45969;DHT22;31676;40.444;-3.668;2022-10-16T11:16:43;24.60;73.90
45969;DHT22;31676;40.444;-3.668;2022-10-16T11:21:50;24.60;73.90
45969;DHT22;31676;40.444;-3.668;2022-10-16T11:24:34;24.50;73.80
45969;DHT22;31676;40.444;-3.668;2022-10-16T11:27:01;24.50;73.80
45969;DHT22;31676;40.444;-3.668;2022-10-16T11:29:29;24.60;73.90
45969;DHT22;31676;40.444;-3.668;2022-10-16T11:32:07;24.60;73.80
45969;DHT22;31676;40.444;-3.668;2022-10-16T11:34:38;24.60;73.80
45969;DHT22;31676;40.444;-3.668;2022-10-16T11:37:09;24.60;73.80
45969;DHT22;31676;40.444;-3.668;2022-10-16T11:39:36;24.60;73.80
45969;DHT22;31676;40.444;-3.668;2022-10-16T11:47:25;24.60;73.80
45969;DHT22;31676;40.444;-3.668;2022-10-16T11:49:52;24.60;73.80
45969;DHT22;31676;40.444;-3.668;2022-10-16T11:52:23;24.60;73.80
45969;DHT22;31676;40.444;-3.668;2022-10-16T11:54:59;24.60;73.80
45969;DHT22;31676;40.444;-3.668;2022-10-16T11:57:27;24.60;73.80
45969;DHT22;31676;40.444;-3.668;2022-10-16T12:00:14;24.60;73.80
45969;DHT22;31676;40.444;-3.668;2022-10-16T12:05:25;24.60;73.80
45969;DHT22;31676;40.444;-3.668;2022-10-16T12:10:23;24.60;73.80
45969;DHT22;31676;40.444;-3.668;2022-10-16T12:12:49;24.60;73.80
45969;DHT22;31676;40.444;-3.668;2022-10-16T12:15:19;24.60;73.70
45969;DHT22;31676;40.444;-3.668;2022-10-16T12:17:45;24.60;73.80
45969;DHT22;31676;40.444;-3.668;2022-10-16T12:22:56;24.60;73.80
45969;DHT22;31676;40.444;-3.668;2022-10-16T12:25:32;24.60;73.80
45969;DHT22;31676;40.444;-3.668;2022-10-16T12:28:05;24.70;73.80
45969;DHT22;31676;40.444;-3.668;2022-10-16T12:30:35;24.60;73.80
45969;DHT22;31676;40.444;-3.668;2022-10-16T12:33:02;24.70;73.80
45969;DHT22;31676;40.444;-3.668;2022-10-16T12:35:35;24.70;73.80
45969;DHT22;31676;40.444;-3.668;2022-10-16T12:38:14;24.70;73.80
45969;DHT22;31676;40.444;-3.668;2022-10-16T12:40:41;24.70;73.80
45969;DHT22;31676;40.444;-3.668;2022-10-16T12:45:45;24.70;73.80
45969;DHT22;31676;40.444;-3.668;2022-10-16T12:48:21;24.70;73.80
45969;DHT22;31676;40.444;-3.668;2022-10-16T12:50:47;24.70;73.80
45969;DHT22;31676;40.444;-3.668;2022-10-16T12:53:23;24.70;73.80
45969;DHT22;31676;40.444;-3.668;2022-10-16T12:55:52;24.70;73.80
45969;DHT22;31676;40.444;-3.668;2022-10-16T13:00:56;24.70;73.80
45969;DHT22;31676;40.444;-3.668;2022-10-16T13:08:33;24.80;73.90
45969;DHT22;31676;40.444;-3.668;2022-10-16T13:16:34;24.70;73.80
45969;DHT22;31676;40.444;-3.668;2022-10-16T13:22:15;24.80;73.80
45969;DHT22;31676;40.444;-3.668;2022-10-16T13:24:52;24.80;73.80
45969;DHT22;31676;40.444;-3.668;2022-10-16T13:29:47;24.80;73.80
45969;DHT22;31676;40.444;-3.668;2022-10-16T13:32:18;24.80;73.80
45969;DHT22;31676;40.444;-3.668;2022-10-16T13:34:46;24.80;73.80
45969;DHT22;31676;40.444;-3.668;2022-10-16T13:37:19;24.80;73.80
45969;DHT22;31676;40.444;-3.668;2022-10-16T13:39:45;24.80;73.80
45969;DHT22;31676;40.444;-3.668;2022-10-16T13:42:25;24.80;73.80
45969;DHT22;31676;40.444;-3.668;2022-10-16T13:44:52;24.80;73.80
45969;DHT22;31676;40.444;-3.668;2022-10-16T13:47:22;24.80;73.80
45969;DHT22;31676;40.444;-3.668;2022-10-16T13:50:02;24.80;73.70
45969;DHT22;31676;40.444;-3.668;2022-10-16T13:52:29;24.80;73.80
45969;DHT22;31676;40.444;-3.668;2022-10-16T13:54:54;24.80;73.70
45969;DHT22;31676;40.444;-3.668;2022-10-16T13:57:21;24.80;73.70
45969;DHT22;31676;40.444;-3.668;2022-10-16T13:59:47;24.80;73.70
45969;DHT22;31676;40.444;-3.668;2022-10-16T14:02:21;24.80;73.70
45969;DHT22;31676;40.444;-3.668;2022-10-16T14:04:47;24.80;73.70
45969;DHT22;31676;40.444;-3.668;2022-10-16T14:07:14;24.80;73.70
45969;DHT22;31676;40.444;-3.668;2022-10-16T14:09:47;24.80;74.40
45969;DHT22;31676;40.444;-3.668;2022-10-16T14:12:13;24.90;73.80
45969;DHT22;31676;40.444;-3.668;2022-10-16T14:14:42;24.80;73.70
45969;DHT22;31676;40.444;-3.668;2022-10-16T14:17:48;24.80;73.70
45969;DHT22;31676;40.444;-3.668;2022-10-16T14:20:02;24.80;73.70
45969;DHT22;31676;40.444;-3.668;2022-10-16T14:22:35;24.90;73.80
45969;DHT22;31676;40.444;-3.668;2022-10-16T14:25:01;24.80;73.70
45969;DHT22;31676;40.444;-3.668;2022-10-16T14:27:29;24.80;73.70
45969;DHT22;31676;40.444;-3.668;2022-10-16T14:32:32;24.80;73.70
45969;DHT22;31676;40.444;-3.668;2022-10-16T14:34:58;24.80;73.70
45969;DHT22;31676;40.444;-3.668;2022-10-16T14:37:25;24.90;73.70
45969;DHT22;31676;40.444;-3.668;2022-10-16T14:39:51;24.80;73.70
45969;DHT22;31676;40.444;-3.668;2022-10-16T14:42:17;24.80;73.70
45969;DHT22;31676;40.444;-3.668;2022-10-16T14:44:44;24.90;73.70
45969;DHT22;31676;40.444;-3.668;2022-10-16T14:47:12;24.90;73.80
45969;DHT22;31676;40.444;-3.668;2022-10-16T14:49:38;24.90;73.70
45969;DHT22;31676;40.444;-3.668;2022-10-16T14:52:10;24.90;73.80
45969;DHT22;31676;40.444;-3.668;2022-10-16T14:54:36;24.90;73.70
45969;DHT22;31676;40.444;-3.668;2022-10-16T14:57:01;24.90;73.70
45969;DHT22;31676;40.444;-3.668;2022-10-16T14:59:28;24.90;73.70
45969;DHT22;31676;40.444;-3.668;2022-10-16T15:01:55;24.90;73.80
45969;DHT22;31676;40.444;-3.668;2022-10-16T15:04:21;24.90;73.70
45969;DHT22;31676;40.444;-3.668;2022-10-16T15:06:47;24.90;73.70
45969;DHT22;31676;40.444;-3.668;2022-10-16T15:09:13;24.90;73.70
45969;DHT22;31676;40.444;-3.668;2022-10-16T15:11:38;24.90;73.70
45969;DHT22;31676;40.444;-3.668;2022-10-16T15:14:04;24.90;73.70
45969;DHT22;31676;40.444;-3.668;2022-10-16T15:16:30;24.90;73.70
45969;DHT22;31676;40.444;-3.668;2022-10-16T15:18:56;24.90;73.70
45969;DHT22;31676;40.444;-3.668;2022-10-16T15:21:27;24.90;73.70
45969;DHT22;31676;40.444;-3.668;2022-10-16T15:23:53;24.90;73.70
45969;DHT22;31676;40.444;-3.668;2022-10-16T15:26:19;24.90;73.70
45969;DHT22;31676;40.444;-3.668;2022-10-16T15:28:45;24.90;73.60
45969;DHT22;31676;40.444;-3.668;2022-10-16T15:31:10;24.90;73.70
45969;DHT22;31676;40.444;-3.668;2022-10-16T15:33:36;24.90;73.70
45969;DHT22;31676;40.444;-3.668;2022-10-16T15:36:02;24.90;73.60
45969;DHT22;31676;40.444;-3.668;2022-10-16T15:38:28;24.90;73.70
45969;DHT22;31676;40.444;-3.668;2022-10-16T15:40:54;24.90;73.70
45969;DHT22;31676;40.444;-3.668;2022-10-16T15:43:19;24.90;73.60
45969;DHT22;31676;40.444;-3.668;2022-10-16T15:46:01;24.90;73.60
45969;DHT22;31676;40.444;-3.668;2022-10-16T15:48:28;24.90;73.70
45969;DHT22;31676;40.444;-3.668;2022-10-16T15:50:54;24.90;73.70
45969;DHT22;31676;40.444;-3.668;2022-10-16T15:53:20;24.90;73.60
45969;DHT22;31676;40.444;-3.668;2022-10-16T15:55:45;24.90;73.60
45969;DHT22;31676;40.444;-3.668;2022-10-16T15:58:11;24.90;73.60
45969;DHT22;31676;40.444;-3.668;2022-10-16T16:00:37;24.90;73.80
45969;DHT22;31676;40.444;-3.668;2022-10-16T16:03:03;24.90;73.60
45969;DHT22;31676;40.444;-3.668;2022-10-16T16:05:29;24.90;73.70
45969;DHT22;31676;40.444;-3.668;2022-10-16T16:07:56;24.90;73.60
45969;DHT22;31676;40.444;-3.668;2022-10-16T16:10:22;24.90;73.70
45969;DHT22;31676;40.444;-3.668;2022-10-16T16:12:48;24.90;73.70
45969;DHT22;31676;40.444;-3.668;2022-10-16T16:15:19;24.90;73.70
45969;DHT22;31676;40.444;-3.668;2022-10-16T16:17:44;24.90;73.60
45969;DHT22;31676;40.444;-3.668;2022-10-16T16:20:10;24.90;73.70
45969;DHT22;31676;40.444;-3.668;2022-10-16T16:22:36;25.00;73.70
45969;DHT22;31676;40.444;-3.668;2022-10-16T16:25:02;24.90;73.60
45969;DHT22;31676;40.444;-3.668;2022-10-16T16:27:27;24.90;73.60
45969;DHT22;31676;40.444;-3.668;2022-10-16T16:29:55;24.90;73.60
45969;DHT22;31676;40.444;-3.668;2022-10-16T16:32:21;24.90;73.70
45969;DHT22;31676;40.444;-3.668;2022-10-16T16:34:46;24.90;73.60
45969;DHT22;31676;40.444;-3.668;2022-10-16T16:37:12;25.00;73.70
45969;DHT22;31676;40.444;-3.668;2022-10-16T16:39:38;25.00;73.70
45969;DHT22;31676;40.444;-3.668;2022-10-16T16:42:04;25.00;73.70
45969;DHT22;31676;40.444;-3.668;2022-10-16T16:44:31;24.90;74.30
45969;DHT22;31676;40.444;-3.668;2022-10-16T16:46:57;24.90;73.70
45969;DHT22;31676;40.444;-3.668;2022-10-16T16:49:23;25.00;73.70
45969;DHT22;31676;40.444;-3.668;2022-10-16T16:51:48;25.00;73.70
45969;DHT22;31676;40.444;-3.668;2022-10-16T16:54:14;25.00;73.70
45969;DHT22;31676;40.444;-3.668;2022-10-16T16:56:40;25.00;73.70
45969;DHT22;31676;40.444;-3.668;2022-10-16T16:59:11;25.00;73.70
45969;DHT22;31676;40.444;-3.668;2022-10-16T17:01:37;25.00;73.70
45969;DHT22;31676;40.444;-3.668;2022-10-16T17:04:03;25.00;73.70
45969;DHT22;31676;40.444;-3.668;2022-10-16T17:06:30;25.00;73.70
45969;DHT22;31676;40.444;-3.668;2022-10-16T17:08:56;25.00;73.70
45969;DHT22;31676;40.444;-3.668;2022-10-16T17:11:24;25.00;73.70